Aérodrome :
LOGIN :

S'inscrire | Disclaimer

   EN    FR    IT 

 










Légende :    VFR   VFR Marginal   IFR   IFR Intensif   IFR Très Intensif
Visi : 
Plafond : 
>= 8 km
>= 3000ft
5 à 8 km
1000 à 3000 ft
1500m à 5 km
500 à 1000 ft
800 à 1500m
200 à 500 ft
< 800m
< 200 ft
Symboles :   Orages  Brouillard  Fortes neiges  Fortes précipitations  Vent > 20 kt
SIGMETs :   Divers  Orages  Givrage  Turbulence  Onde Orograph.  Cendres Volcan.







- Altitude de l'aérodrome : 681 ft
- Code IATA : LBA
- Voir les cartes d'approche


EGNM - Leeds Bradford

DERNIER METAR :
  • 241220Z 26008KT 9999 FEW031 06/01 Q1009

METARs EXPIRÉS :
  • 241150Z 21004KT 150V270 9999 FEW018 06/01 Q1009
  • 241120Z 26008KT 190V290 9999 FEW020 05/01 Q1008
  • 241050Z 25006KT 190V350 CAVOK 05/01 Q1008
  • 241020Z 26006KT CAVOK 04/00 Q1008
  • 240950Z 25004KT 220V290 9999 FEW015CB 03/00 Q1008

TAF TAF EGNM
Valide du 24 à 12h jusqu'au 25 à 12h UTC


241103Z 2412/2512 25007KT 9999 FEW030
PROB30
TEMPO 2414/2418 7000 SHRA BKN012
PROB30
TEMPO 2418/2422 3000 SHRASN BKN010
PROB30
TEMPO 2422/2508 1200 SHSN BKN004
ATIS : +44 113 250 9696 (x2489)
Pas de NOTAMs connus pour ce terrain.



MET'MAP, la Météo Aéronautique d'un coup d'oeil ! - Copyright ORBIFLY Décembre 2007 - Disclaimer

ORBIFLY MET'MAP TEAM :

Programmation & Développement : Alexandra Zaïnal
Conception & Développement : Baudouin d'Aumeries
Co-Programmation & Développement : Marc-Olivier Méhu
Soutien technique & logistique : Manuel Goepfert

Contact : metmap@orbifly.com




SOURCES & CREDITS :

   NOAA